Terminal Aerodrome Forecast
Issued by NWS Louisville, KY

Home | Current Version | Previous Version | Text Only | Print | Product List | Glossary On
Versions: 1 2 3 4 5 6 7 8 9 10 11 12 13 14 15
000
FTUS43 KLMK 282042 AAA
TAFSDF
TAF AMD
KSDF 282042Z 2821/2924 09005KT P6SM VCTS SCT040CB SCT150
      TEMPO 2821/2823 VRB15G25KT 3SM -TSRA BKN035CB
     FM290200 06004KT P6SM FEW040 SCT150
     FM291000 05003KT 6SM BR SCT100
     FM291200 05004KT P6SM SCT040 SCT150=

USA.gov is the U.S. government's official web portal to all federal, state and local government web resources and services.